Terminal Aerodrome Forecast
Issued by NWS Shreveport, LA

Home | Current Version | Previous Version | Text Only | Print | Product List | Glossary On
Versions: 1 2 3 4 5 6 7 8 9 10 11 12
859
FTUS44 KSHV 261727
TAFMLU
TAF
KMLU 261727Z 2618/2718 14008KT P6SM SCT100
     FM271000 15008KT 5SM -TSRA BR OVC025CB=

USA.gov is the U.S. government's official web portal to all federal, state and local government web resources and services.